Terminal Aerodrome Forecast
Issued by NWS Bismarck, ND

Home | Current Version | Previous Version | Text Only | Print | Product List | Glossary On
Versions: 1 2 3 4 5 6 7 8 9 10 11 12 13 14 15 16
000
FTUS43 KBIS 240535
TAFBIS
TAF
KBIS 240535Z 2406/2506 VRB04KT P6SM BKN100
     FM241400 05008KT P6SM VCSH BKN080
     FM250500 09006KT P6SM VCSH BKN025=

USA.gov is the U.S. government's official web portal to all federal, state and local government web resources and services.